createdAt,value
2018-10-01T00:18:06.615Z,10.29
2018-10-01T00:20:41.687Z,10.26
2018-10-01T00:23:12.403Z,10.30
2018-10-01T00:25:42.437Z,10.28
2018-10-01T00:28:12.801Z,10.37
2018-10-01T00:59:39.289Z,10.30
2018-10-01T01:02:09.286Z,10.33
2018-10-01T01:04:39.167Z,10.26
2018-10-01T01:07:09.479Z,10.38
2018-10-01T01:09:39.608Z,10.40
2018-10-01T01:29:31.453Z,10.34
2018-10-01T01:32:01.206Z,10.24
2018-10-01T01:34:30.920Z,10.26
2018-10-01T01:37:01.826Z,10.22
2018-10-01T01:56:54.201Z,10.24
2018-10-01T01:59:24.462Z,10.23
2018-10-01T02:01:54.208Z,10.28
2018-10-01T02:21:46.183Z,10.41
2018-10-01T02:41:40.237Z,10.53
2018-10-01T02:44:10.379Z,10.50
2018-10-01T02:46:40.062Z,10.46
2018-10-01T02:49:09.780Z,10.52
2018-10-01T02:51:45.016Z,10.43
2018-10-01T03:11:36.378Z,10.50
2018-10-01T03:14:07.432Z,10.51
2018-10-01T03:16:37.469Z,10.53
2018-10-01T03:19:08.120Z,10.41
2018-10-01T03:21:38.856Z,10.46
2018-10-01T03:24:09.349Z,10.49
2018-10-01T03:26:39.077Z,10.46
2018-10-01T03:29:09.004Z,10.43
2018-10-01T03:31:39.311Z,10.38
2018-10-01T03:34:09.279Z,10.36
2018-10-01T03:36:39.167Z,10.41
2018-10-01T03:39:10.502Z,10.41
2018-10-01T03:41:40.700Z,10.43
2018-10-01T03:44:10.879Z,10.38
2018-10-01T03:46:41.102Z,10.42
2018-10-01T03:49:10.861Z,10.41
2018-10-01T03:51:40.641Z,10.38
2018-10-01T03:54:10.791Z,10.36
2018-10-01T03:56:40.780Z,10.44
2018-10-01T03:59:10.640Z,10.30
2018-10-01T04:01:40.456Z,10.38
2018-10-01T04:04:10.376Z,10.36
2018-10-01T04:24:03.589Z,10.45
2018-10-01T04:26:33.085Z,10.27
2018-10-01T04:29:02.981Z,10.38
2018-10-01T05:00:31.625Z,10.75
2018-10-01T05:03:01.593Z,10.82
2018-10-01T05:05:31.407Z,10.78
2018-10-01T05:08:01.542Z,10.80
2018-10-01T05:10:31.447Z,10.76
2018-10-01T05:13:01.171Z,10.86
2018-10-01T05:15:31.184Z,10.73
2018-10-01T05:18:00.940Z,10.80
2018-10-01T05:20:30.743Z,10.70
2018-10-01T05:23:00.538Z,10.70
2018-10-01T05:25:30.252Z,10.71
2018-10-01T05:28:00.177Z,10.68
2018-10-01T05:47:51.055Z,10.74
2018-10-01T05:50:20.977Z,10.75
2018-10-01T05:52:50.810Z,10.72
2018-10-01T06:12:42.608Z,10.88
2018-10-01T06:15:12.723Z,10.99
2018-10-01T06:17:42.668Z,11.03
2018-10-01T06:20:12.518Z,10.95
2018-10-01T06:22:42.449Z,11.06
2018-10-01T06:25:12.455Z,11.07
2018-10-01T06:27:42.182Z,11.08
2018-10-01T06:30:12.038Z,11.11
2018-10-01T06:32:41.970Z,11.24
2018-10-01T06:35:12.256Z,11.42
2018-10-01T06:37:42.125Z,11.44
2018-10-01T06:40:11.989Z,11.58
2018-10-01T06:42:42.219Z,11.66
2018-10-01T06:45:11.974Z,11.77
2018-10-01T06:47:41.762Z,11.76
2018-10-01T06:50:11.974Z,11.81
2018-10-01T07:10:03.613Z,12.21
2018-10-01T07:12:33.286Z,12.25
2018-10-01T07:15:03.248Z,12.31
2018-10-01T07:17:32.786Z,12.37
2018-10-01T07:20:02.871Z,12.47
2018-10-01T07:22:32.573Z,12.48
2018-10-01T07:42:25.242Z,13.06
2018-10-01T07:44:55.123Z,13.03
2018-10-01T07:47:24.834Z,13.27
2018-10-01T07:49:54.772Z,13.32
2018-10-01T07:52:24.673Z,13.18
2018-10-01T08:12:17.810Z,13.78
2018-10-01T08:14:47.813Z,13.67
2018-10-01T08:17:17.694Z,13.79
2018-10-01T08:37:10.779Z,14.12
2018-10-01T08:39:40.739Z,14.23
2018-10-01T08:42:10.683Z,14.42
2018-10-01T08:44:41.055Z,14.44
2018-10-01T08:47:11.033Z,14.57
2018-10-01T08:49:47.173Z,14.69
2018-10-01T08:52:22.994Z,14.79
2018-10-01T08:54:53.002Z,14.81
2018-10-01T08:57:22.708Z,14.97
2018-10-01T08:59:52.640Z,15.01
2018-10-01T09:02:22.612Z,15.08
2018-10-01T09:04:52.672Z,15.33
2018-10-01T09:07:22.582Z,15.25
2018-10-01T09:09:52.482Z,15.30
2018-10-01T09:12:22.410Z,15.27
2018-10-01T09:14:52.291Z,15.37
2018-10-01T09:17:22.802Z,15.50
2018-10-01T09:19:52.713Z,15.76
2018-10-01T09:22:22.801Z,15.82
2018-10-01T09:24:52.972Z,16.01
2018-10-01T09:27:22.658Z,15.86
2018-10-01T09:47:15.291Z,15.83
2018-10-01T09:49:45.047Z,15.83
2018-10-01T09:52:15.137Z,15.97
2018-10-01T09:54:45.001Z,15.69
2018-10-01T09:57:14.673Z,15.92
2018-10-01T09:59:44.464Z,16.18
2018-10-01T10:02:14.564Z,16.25
2018-10-01T10:04:44.254Z,16.32
2018-10-01T10:07:14.178Z,16.49
2018-10-01T10:09:44.098Z,16.28
2018-10-01T10:12:13.899Z,16.40
2018-10-01T10:14:43.724Z,16.68
2018-10-01T10:17:13.643Z,16.62
2018-10-01T10:37:05.817Z,16.66
2018-10-01T10:56:58.160Z,18.50
2018-10-01T10:59:27.867Z,18.71
2018-10-01T11:01:57.638Z,18.62
2018-10-01T11:21:49.910Z,20.30
2018-10-01T11:24:19.840Z,20.21
2018-10-01T11:26:49.726Z,20.69
2018-10-01T11:29:19.744Z,21.00
2018-10-01T11:31:49.703Z,20.64
2018-10-01T11:34:19.067Z,20.36
2018-10-01T11:36:49.096Z,20.49
2018-10-01T11:56:40.406Z,19.32
2018-10-01T11:59:10.235Z,19.02
2018-10-01T12:01:39.777Z,18.83
2018-10-01T12:04:09.686Z,18.98
2018-10-01T12:06:39.775Z,19.05
2018-10-01T12:09:10.949Z,19.23
2018-10-01T12:11:40.987Z,19.05
2018-10-01T12:14:11.368Z,18.86
2018-10-01T12:16:40.995Z,18.77
2018-10-01T12:19:11.561Z,18.86
2018-10-01T12:39:04.867Z,19.51
2018-10-01T12:41:34.456Z,20.37
2018-10-01T12:44:04.195Z,20.89
2018-10-01T12:46:33.577Z,21.28
2018-10-01T12:49:03.914Z,20.97
2018-10-01T12:51:33.411Z,20.52
2018-10-01T12:54:03.329Z,20.09
2018-10-01T12:56:32.983Z,20.14
2018-10-01T12:59:02.536Z,19.97
2018-10-01T13:01:32.066Z,20.18
2018-10-01T13:04:01.942Z,20.07
2018-10-01T13:06:31.510Z,19.94
2018-10-01T13:09:01.171Z,20.23
2018-10-01T13:11:31.325Z,20.40
2018-10-01T13:14:01.125Z,20.33
2018-10-01T13:16:30.830Z,20.14
2018-10-01T13:19:00.813Z,19.96
2018-10-01T13:21:30.658Z,21.24
2018-10-01T13:41:22.570Z,22.13
2018-10-01T14:01:14.380Z,23.16
2018-10-01T14:03:44.398Z,24.16
2018-10-01T14:06:14.102Z,24.22
2018-10-01T14:08:43.891Z,23.40
2018-10-01T14:11:13.943Z,22.70
2018-10-01T14:13:43.593Z,22.82
2018-10-01T14:16:13.672Z,23.36
2018-10-01T14:18:43.709Z,23.32
2018-10-01T14:21:13.419Z,22.67
2018-10-01T14:23:43.233Z,23.08
2018-10-01T14:26:12.815Z,23.33
2018-10-01T14:28:42.725Z,23.67
2018-10-01T14:48:34.527Z,23.67
2018-10-01T14:51:04.529Z,23.46
2018-10-01T15:10:56.082Z,20.65
2018-10-01T15:13:25.830Z,20.50
2018-10-01T15:33:18.761Z,19.12
2018-10-01T15:35:48.337Z,18.90
2018-10-01T15:55:40.275Z,17.81
2018-10-01T15:58:10.060Z,17.80
2018-10-01T16:00:39.700Z,17.68
2018-10-01T16:03:09.647Z,17.68
2018-10-01T16:23:00.846Z,17.03
2018-10-01T16:25:30.929Z,17.09
2018-10-01T17:05:38.919Z,15.92
2018-10-01T17:08:09.460Z,15.97
2018-10-01T17:10:39.093Z,15.79
2018-10-01T17:13:09.754Z,15.75
2018-10-01T17:15:39.410Z,15.77
2018-10-01T17:18:09.234Z,15.68
2018-10-01T17:20:39.738Z,15.72
2018-10-01T17:23:09.137Z,15.62
2018-10-01T17:25:38.778Z,15.53
2018-10-01T17:28:09.325Z,15.41
2018-10-01T17:48:01.555Z,15.32
2018-10-01T17:50:31.975Z,15.19
2018-10-01T18:10:24.559Z,14.82
2018-10-01T18:30:16.886Z,14.43
2018-10-01T18:32:46.320Z,14.58
2018-10-01T18:35:15.801Z,14.47
2018-10-01T18:37:45.955Z,14.22
2018-10-01T18:40:15.533Z,14.09
2018-10-01T18:42:45.243Z,14.04
2018-10-01T18:45:15.248Z,13.98
2018-10-01T18:47:44.896Z,14.15
2018-10-01T18:50:14.623Z,14.09
2018-10-01T18:52:44.334Z,14.04
2018-10-01T18:55:14.099Z,14.00
2018-10-01T19:15:06.358Z,14.13
2018-10-01T19:17:35.782Z,14.14
2018-10-01T19:20:05.423Z,14.32
2018-10-01T19:39:57.658Z,13.81
2018-10-01T19:42:27.246Z,13.81
2018-10-01T19:44:57.107Z,13.77
2018-10-01T19:47:27.239Z,13.74
2018-10-01T19:49:56.786Z,13.63
2018-10-01T19:52:26.389Z,13.64
2018-10-01T19:54:56.369Z,13.57
2018-10-01T20:14:48.812Z,13.65
2018-10-01T20:17:19.019Z,13.67
2018-10-01T20:19:48.580Z,13.73
2018-10-01T20:22:18.227Z,13.56
2018-10-01T20:24:48.456Z,13.42
2018-10-01T20:27:18.808Z,13.47
2018-10-01T20:29:48.253Z,13.35
2018-10-01T20:32:17.809Z,13.31
2018-10-01T20:34:47.636Z,13.23
2018-10-01T20:37:17.296Z,13.35
2018-10-01T20:39:46.998Z,13.19
2018-10-01T20:42:16.863Z,13.27
2018-10-01T20:44:46.641Z,13.37
2018-10-01T20:47:16.404Z,13.23
2018-10-01T20:49:46.083Z,13.25
2018-10-01T20:52:15.628Z,13.17
2018-10-01T20:54:45.569Z,13.15
2018-10-01T20:57:15.501Z,13.01
2018-10-01T20:59:45.227Z,13.10
2018-10-01T21:02:15.075Z,13.02
2018-10-01T21:04:44.818Z,12.93
2018-10-01T21:07:14.534Z,12.89
2018-10-01T21:09:44.287Z,12.94
2018-10-01T21:12:14.131Z,12.90
2018-10-01T21:14:43.790Z,12.99
2018-10-01T21:17:13.790Z,12.89
2018-10-01T21:19:43.509Z,12.84
2018-10-01T21:22:13.173Z,12.84
2018-10-01T21:24:43.165Z,12.82
2018-10-01T21:27:12.742Z,12.80
2018-10-01T21:29:42.466Z,12.88
2018-10-01T21:32:12.244Z,12.91
2018-10-01T21:34:42.065Z,12.88
2018-10-01T21:37:11.884Z,12.75
2018-10-01T21:40:16.604Z,12.71
2018-10-01T21:42:46.538Z,12.83
2018-10-01T21:45:17.305Z,12.71
2018-10-01T21:47:46.831Z,12.73
2018-10-01T21:50:16.296Z,12.71
2018-10-01T21:52:46.002Z,12.61
2018-10-01T21:55:15.490Z,12.64
2018-10-01T21:57:44.988Z,12.55
2018-10-01T22:00:15.260Z,12.45
2018-10-01T22:02:44.855Z,12.51
2018-10-01T22:05:14.514Z,12.47
2018-10-01T22:07:44.426Z,12.24
2018-10-01T22:10:14.032Z,12.28
2018-10-01T22:12:43.577Z,12.31
2018-10-01T22:15:14.445Z,12.33
2018-10-01T22:17:44.340Z,12.40
2018-10-01T22:20:14.146Z,12.37
2018-10-01T22:22:44.075Z,12.14
2018-10-01T22:25:13.667Z,12.17
2018-10-01T22:27:43.223Z,12.12
2018-10-01T22:30:13.204Z,12.15
2018-10-01T22:32:42.899Z,11.98
2018-10-01T22:35:12.407Z,12.10
2018-10-01T22:37:42.356Z,12.16
2018-10-01T22:40:12.123Z,12.17
2018-10-01T22:42:41.726Z,12.10
2018-10-01T22:45:11.382Z,11.99
2018-10-01T22:47:40.652Z,11.94
2018-10-01T22:50:10.191Z,11.78
2018-10-01T22:52:39.716Z,11.81
2018-10-01T22:55:09.320Z,11.89
2018-10-01T22:57:39.206Z,11.82
2018-10-01T23:00:09.449Z,11.74
2018-10-01T23:02:39.038Z,11.48
2018-10-01T23:05:08.894Z,11.58
2018-10-01T23:07:38.802Z,11.62
2018-10-01T23:10:08.757Z,11.67
2018-10-01T23:12:38.364Z,11.75
2018-10-01T23:15:08.539Z,11.75
2018-10-01T23:17:38.150Z,11.82
2018-10-01T23:20:07.829Z,11.69
2018-10-01T23:22:37.649Z,11.75
2018-10-01T23:25:07.434Z,11.71
2018-10-01T23:27:37.267Z,11.66
2018-10-01T23:30:06.898Z,11.63
2018-10-01T23:32:36.375Z,11.53
2018-10-01T23:35:06.693Z,11.54
2018-10-01T23:37:36.448Z,11.49
2018-10-01T23:40:06.070Z,11.52
2018-10-01T23:42:35.610Z,11.49
2018-10-01T23:45:05.392Z,11.37
2018-10-01T23:47:37.294Z,11.24
2018-10-01T23:50:07.112Z,11.24
2018-10-01T23:52:36.714Z,11.26
2018-10-01T23:55:07.101Z,11.32
2018-10-01T23:57:36.751Z,11.08
